createdAt,value
2018-07-31T00:00:26.693Z,0.00
2018-07-31T00:01:26.692Z,0.00
2018-07-31T00:02:26.691Z,0.00
2018-07-31T00:03:26.710Z,0.00
2018-07-31T00:04:26.697Z,0.00
2018-07-31T00:05:26.695Z,0.00
2018-07-31T00:06:26.690Z,0.00
2018-07-31T00:07:26.691Z,0.00
2018-07-31T00:08:26.693Z,0.00
2018-07-31T00:09:26.692Z,0.00
2018-07-31T00:10:26.692Z,0.00
2018-07-31T00:11:26.688Z,0.00
2018-07-31T00:12:26.687Z,0.00
2018-07-31T00:13:26.692Z,0.00
2018-07-31T00:14:26.688Z,0.00
2018-07-31T00:15:26.685Z,0.00
2018-07-31T00:16:26.686Z,0.00
2018-07-31T00:17:26.686Z,0.00
2018-07-31T00:18:26.684Z,0.00
2018-07-31T00:19:26.685Z,0.00
2018-07-31T00:20:26.684Z,0.00
2018-07-31T00:21:26.688Z,0.00
2018-07-31T00:22:26.683Z,0.00
2018-07-31T00:23:26.681Z,0.00
2018-07-31T00:24:26.682Z,0.00
2018-07-31T00:25:26.680Z,0.00
2018-07-31T00:26:26.680Z,0.00
2018-07-31T00:27:26.678Z,0.00
2018-07-31T00:28:26.679Z,0.00
2018-07-31T00:29:26.677Z,0.00
2018-07-31T00:30:26.678Z,0.00
2018-07-31T00:31:26.676Z,0.00
2018-07-31T00:32:26.674Z,0.00
2018-07-31T00:33:26.679Z,0.00
2018-07-31T00:34:26.704Z,0.00
2018-07-31T00:35:26.674Z,0.00
2018-07-31T00:36:26.673Z,0.00
2018-07-31T00:37:26.673Z,0.00
2018-07-31T00:38:26.672Z,0.00
2018-07-31T00:39:26.673Z,0.00
2018-07-31T00:40:26.670Z,0.00
2018-07-31T00:41:26.672Z,0.00
2018-07-31T00:42:26.668Z,0.00
2018-07-31T00:43:26.671Z,0.00
2018-07-31T00:44:26.667Z,0.00
2018-07-31T00:45:26.668Z,0.00
2018-07-31T00:46:26.665Z,0.00
2018-07-31T00:47:26.665Z,0.00
2018-07-31T00:48:26.663Z,0.00
2018-07-31T00:49:26.664Z,0.00
2018-07-31T00:50:26.665Z,0.00
2018-07-31T00:51:26.661Z,0.00
2018-07-31T00:52:26.658Z,0.00
2018-07-31T00:53:26.658Z,0.00
2018-07-31T00:54:26.663Z,0.00
2018-07-31T00:55:26.658Z,0.00
2018-07-31T00:56:26.657Z,0.00
2018-07-31T00:57:26.657Z,0.00
2018-07-31T00:58:26.657Z,0.00
2018-07-31T00:59:26.653Z,0.00
2018-07-31T01:00:26.653Z,0.00
2018-07-31T01:01:26.651Z,0.00
2018-07-31T01:02:26.651Z,0.00
2018-07-31T01:03:26.649Z,0.00
2018-07-31T01:04:26.652Z,0.00
2018-07-31T01:05:26.653Z,0.00
2018-07-31T01:06:26.645Z,0.00
2018-07-31T01:07:26.647Z,0.00
2018-07-31T01:08:26.646Z,0.00
2018-07-31T01:09:26.644Z,0.00
2018-07-31T01:10:26.643Z,0.00
2018-07-31T01:11:26.644Z,0.00
2018-07-31T01:12:26.652Z,0.00
2018-07-31T01:13:26.642Z,0.00
2018-07-31T01:14:26.647Z,0.00
2018-07-31T01:15:26.641Z,0.00
2018-07-31T01:16:26.654Z,0.00
2018-07-31T01:17:26.637Z,0.00
2018-07-31T01:18:26.635Z,0.00
2018-07-31T01:19:26.658Z,0.00
2018-07-31T01:20:26.634Z,0.00
2018-07-31T01:21:26.633Z,0.00
2018-07-31T01:22:26.633Z,0.00
2018-07-31T01:23:26.630Z,0.00
2018-07-31T01:24:26.630Z,0.00
2018-07-31T01:25:26.629Z,0.00
2018-07-31T01:26:26.629Z,0.00
2018-07-31T01:27:26.658Z,0.00
2018-07-31T01:28:26.629Z,0.00
2018-07-31T01:29:26.621Z,0.00
2018-07-31T01:30:26.623Z,0.00
2018-07-31T01:31:26.622Z,0.00
2018-07-31T01:32:26.627Z,0.00
2018-07-31T01:33:26.618Z,0.00
2018-07-31T01:34:26.619Z,0.00
2018-07-31T01:35:26.619Z,0.00
2018-07-31T01:36:26.616Z,0.00
2018-07-31T01:37:26.614Z,0.00
2018-07-31T01:38:26.613Z,0.00
2018-07-31T01:39:26.613Z,0.00
2018-07-31T01:40:26.614Z,0.00
2018-07-31T01:41:26.621Z,0.00
2018-07-31T01:42:26.614Z,0.00
2018-07-31T01:43:26.609Z,0.00
2018-07-31T01:44:26.605Z,0.00
2018-07-31T01:45:26.604Z,0.00
2018-07-31T01:46:26.603Z,0.00
2018-07-31T01:47:26.603Z,0.00
2018-07-31T01:48:26.603Z,0.00
2018-07-31T01:49:26.602Z,0.00
2018-07-31T01:50:26.604Z,0.00
2018-07-31T01:51:26.601Z,0.00
2018-07-31T01:52:26.598Z,0.00
2018-07-31T01:53:26.594Z,0.00
2018-07-31T01:54:26.595Z,0.00
2018-07-31T01:55:26.598Z,0.00
2018-07-31T01:56:26.592Z,0.00
2018-07-31T01:57:26.593Z,0.00
2018-07-31T01:58:26.594Z,0.00
2018-07-31T01:59:26.588Z,0.00
2018-07-31T02:00:26.592Z,0.00
2018-07-31T02:01:26.586Z,0.00
2018-07-31T02:02:26.586Z,0.00
2018-07-31T02:03:26.584Z,0.00
2018-07-31T02:04:26.585Z,0.00
2018-07-31T02:05:26.585Z,0.00
2018-07-31T02:06:26.580Z,0.00
2018-07-31T02:07:26.584Z,0.00
2018-07-31T02:08:26.575Z,0.00
2018-07-31T02:09:26.582Z,0.00
2018-07-31T02:10:26.579Z,0.00
2018-07-31T02:11:26.573Z,0.00
2018-07-31T02:12:26.571Z,0.00
2018-07-31T02:13:26.570Z,0.00
2018-07-31T02:14:26.570Z,0.00
2018-07-31T02:15:26.567Z,0.00
2018-07-31T02:16:26.569Z,0.00
2018-07-31T02:17:26.648Z,0.00
2018-07-31T02:18:26.563Z,0.00
2018-07-31T02:19:26.564Z,0.00
2018-07-31T02:20:26.559Z,0.00
2018-07-31T02:21:26.568Z,0.00
2018-07-31T02:22:26.557Z,0.00
2018-07-31T02:23:26.560Z,0.00
2018-07-31T02:24:26.553Z,0.00
2018-07-31T02:25:26.552Z,0.00
2018-07-31T02:26:26.554Z,0.00
2018-07-31T02:27:26.548Z,0.00
2018-07-31T02:28:26.647Z,0.00
2018-07-31T02:29:26.554Z,0.00
2018-07-31T02:30:26.551Z,0.00
2018-07-31T02:31:26.548Z,0.00
2018-07-31T02:32:26.541Z,0.00
2018-07-31T02:33:26.541Z,0.00
2018-07-31T02:34:26.543Z,0.00
2018-07-31T02:35:26.541Z,0.00
2018-07-31T02:36:26.534Z,0.00
2018-07-31T02:37:26.536Z,0.00
2018-07-31T02:38:26.533Z,0.00
2018-07-31T02:39:26.532Z,0.00
2018-07-31T02:40:26.529Z,0.00
2018-07-31T02:41:26.561Z,0.00
2018-07-31T02:42:26.535Z,0.00
2018-07-31T02:43:26.527Z,0.00
2018-07-31T02:44:26.527Z,0.00
2018-07-31T02:45:26.525Z,0.00
2018-07-31T02:46:26.524Z,0.00
2018-07-31T02:47:26.516Z,0.00
2018-07-31T02:48:26.519Z,0.00
2018-07-31T02:49:26.513Z,0.00
2018-07-31T02:50:26.526Z,0.00
2018-07-31T02:51:26.509Z,0.00
2018-07-31T02:52:26.518Z,0.00
2018-07-31T02:53:26.503Z,0.00
2018-07-31T02:54:26.503Z,0.00
2018-07-31T02:55:26.499Z,0.00
2018-07-31T02:56:26.500Z,0.00
2018-07-31T02:57:26.497Z,0.00
2018-07-31T02:58:26.494Z,0.00
2018-07-31T02:59:26.494Z,0.00
2018-07-31T03:00:26.494Z,0.00
2018-07-31T03:01:26.493Z,0.00
2018-07-31T03:02:26.486Z,0.00
2018-07-31T03:03:26.487Z,0.00
2018-07-31T03:04:26.487Z,0.00
2018-07-31T03:05:26.483Z,0.00
2018-07-31T03:06:26.478Z,0.00
2018-07-31T03:07:26.476Z,0.00
2018-07-31T03:08:26.474Z,0.00
2018-07-31T03:09:26.478Z,0.00
2018-07-31T03:10:26.473Z,0.00
2018-07-31T03:11:26.468Z,0.00
2018-07-31T03:12:26.466Z,0.00
2018-07-31T03:13:26.464Z,0.00
2018-07-31T03:14:26.463Z,0.00
2018-07-31T03:15:26.482Z,0.00
2018-07-31T03:16:26.459Z,0.00
2018-07-31T03:17:26.458Z,0.00
2018-07-31T03:18:26.459Z,0.00
2018-07-31T03:19:26.458Z,0.00
2018-07-31T03:20:26.453Z,0.00
2018-07-31T03:21:26.454Z,0.00
2018-07-31T03:22:26.448Z,0.00
2018-07-31T03:23:26.449Z,0.00
2018-07-31T03:24:26.442Z,0.00
2018-07-31T03:25:26.441Z,0.00
2018-07-31T03:26:26.440Z,0.00
2018-07-31T03:27:26.464Z,0.00
2018-07-31T03:28:26.434Z,0.00
2018-07-31T03:29:26.433Z,0.00
2018-07-31T03:30:26.435Z,0.00
2018-07-31T03:31:26.431Z,0.00
2018-07-31T03:32:26.427Z,0.00
2018-07-31T03:33:26.430Z,0.00
2018-07-31T03:34:26.424Z,0.00
2018-07-31T03:35:26.421Z,0.00
2018-07-31T03:36:26.423Z,0.00
2018-07-31T03:37:26.420Z,0.00
2018-07-31T03:38:26.431Z,0.00
2018-07-31T03:39:26.414Z,0.00
2018-07-31T03:40:26.413Z,0.00
2018-07-31T03:41:26.412Z,0.00
2018-07-31T03:42:26.407Z,0.00
2018-07-31T03:43:26.407Z,0.00
2018-07-31T03:44:26.404Z,0.00
2018-07-31T03:45:26.400Z,0.00
2018-07-31T03:46:26.423Z,0.00
2018-07-31T03:47:26.396Z,0.00
2018-07-31T03:48:26.394Z,0.00
2018-07-31T03:49:26.397Z,0.00
2018-07-31T03:50:26.393Z,0.00
2018-07-31T03:51:26.390Z,0.00
2018-07-31T03:52:26.393Z,0.00
2018-07-31T03:53:26.385Z,0.00
2018-07-31T03:54:26.382Z,0.00
2018-07-31T03:55:26.429Z,0.00
2018-07-31T03:56:26.490Z,0.00
2018-07-31T03:57:26.377Z,0.00
2018-07-31T03:58:26.374Z,0.00
2018-07-31T03:59:26.382Z,0.00
2018-07-31T04:00:26.376Z,0.00
2018-07-31T04:01:26.373Z,0.00
2018-07-31T04:02:26.365Z,5.63
2018-07-31T04:03:26.365Z,5.63
2018-07-31T04:04:26.361Z,5.63
2018-07-31T04:05:26.391Z,5.63
2018-07-31T04:06:26.362Z,5.63
2018-07-31T04:07:26.357Z,5.63
2018-07-31T04:08:26.354Z,5.63
2018-07-31T04:09:26.355Z,5.63
2018-07-31T04:10:26.352Z,5.63
2018-07-31T04:11:26.348Z,11.25
2018-07-31T04:12:26.345Z,11.25
2018-07-31T04:13:26.345Z,11.25
2018-07-31T04:14:26.342Z,11.25
2018-07-31T04:15:26.338Z,11.25
2018-07-31T04:16:26.337Z,11.25
2018-07-31T04:17:26.335Z,11.25
2018-07-31T04:18:26.333Z,11.25
2018-07-31T04:19:26.335Z,16.88
2018-07-31T04:20:26.331Z,16.88
2018-07-31T04:21:26.333Z,16.88
2018-07-31T04:22:26.326Z,16.88
2018-07-31T04:23:26.324Z,16.88
2018-07-31T04:24:26.321Z,16.88
2018-07-31T04:25:26.319Z,22.50
2018-07-31T04:26:26.317Z,22.50
2018-07-31T04:27:26.317Z,22.50
2018-07-31T04:28:26.312Z,22.50
2018-07-31T04:29:26.314Z,22.50
2018-07-31T04:30:26.307Z,28.13
2018-07-31T04:31:26.309Z,28.13
2018-07-31T04:32:26.307Z,28.13
2018-07-31T04:33:26.301Z,28.13
2018-07-31T04:34:26.304Z,28.13
2018-07-31T04:35:26.297Z,33.75
2018-07-31T04:36:26.324Z,33.75
2018-07-31T04:37:26.293Z,33.75
2018-07-31T04:38:26.322Z,45.00
2018-07-31T04:39:26.288Z,146.25
2018-07-31T04:40:26.295Z,225.00
2018-07-31T04:41:26.293Z,146.25
2018-07-31T04:42:26.353Z,90.00
2018-07-31T04:43:26.286Z,191.25
2018-07-31T04:44:26.307Z,371.25
2018-07-31T04:45:26.277Z,506.25
2018-07-31T04:46:26.276Z,523.13
2018-07-31T04:47:26.276Z,534.38
2018-07-31T04:48:26.275Z,562.50
2018-07-31T04:49:26.272Z,630.00
2018-07-31T04:50:26.282Z,708.75
2018-07-31T04:51:26.268Z,663.75
2018-07-31T04:52:26.268Z,635.63
2018-07-31T04:53:26.270Z,663.75
2018-07-31T04:54:26.281Z,675.00
2018-07-31T04:55:26.269Z,703.13
2018-07-31T04:56:26.267Z,765.00
2018-07-31T04:57:26.269Z,815.63
2018-07-31T04:58:26.276Z,826.88
2018-07-31T04:59:26.276Z,815.63
2018-07-31T05:00:26.275Z,894.38
2018-07-31T05:01:26.280Z,956.25
2018-07-31T05:02:26.273Z,945.00
2018-07-31T05:03:26.278Z,916.88
2018-07-31T05:04:26.334Z,933.75
2018-07-31T05:05:26.285Z,720.00
2018-07-31T05:06:26.290Z,241.88
2018-07-31T05:07:26.288Z,129.38
2018-07-31T05:08:26.290Z,123.75
2018-07-31T05:09:26.293Z,118.13
2018-07-31T05:10:26.295Z,118.13
2018-07-31T05:11:26.304Z,118.13
2018-07-31T05:12:26.302Z,112.50
2018-07-31T05:13:26.303Z,112.50
2018-07-31T05:14:26.309Z,112.50
2018-07-31T05:15:26.312Z,112.50
2018-07-31T05:16:26.319Z,112.50
2018-07-31T05:17:26.367Z,112.50
2018-07-31T05:18:26.380Z,112.50
2018-07-31T05:19:26.329Z,112.50
2018-07-31T05:20:26.329Z,112.50
2018-07-31T05:21:26.331Z,112.50
2018-07-31T05:22:26.340Z,112.50
2018-07-31T05:23:26.339Z,112.50
2018-07-31T05:24:26.340Z,112.50
2018-07-31T05:25:26.341Z,112.50
2018-07-31T05:26:26.347Z,112.50
2018-07-31T05:27:26.350Z,118.13
2018-07-31T05:28:26.351Z,118.13
2018-07-31T05:29:26.352Z,118.13
2018-07-31T05:30:26.358Z,118.13
2018-07-31T05:31:26.358Z,118.13
2018-07-31T05:32:26.425Z,118.13
2018-07-31T05:33:26.360Z,118.13
2018-07-31T05:34:26.362Z,118.13
2018-07-31T05:35:26.369Z,118.13
2018-07-31T05:36:26.370Z,118.13
2018-07-31T05:37:26.367Z,118.13
2018-07-31T05:38:26.371Z,118.13
2018-07-31T05:39:26.399Z,118.13
2018-07-31T05:40:26.371Z,118.13
2018-07-31T05:41:26.372Z,118.13
2018-07-31T05:42:26.376Z,118.13
2018-07-31T05:43:26.378Z,118.13
2018-07-31T05:44:26.377Z,118.13
2018-07-31T05:45:26.378Z,118.13
2018-07-31T05:46:26.385Z,118.13
2018-07-31T05:47:26.397Z,118.13
2018-07-31T05:48:26.390Z,118.13
2018-07-31T05:49:26.384Z,118.13
2018-07-31T05:50:26.391Z,118.13
2018-07-31T05:51:26.385Z,118.13
2018-07-31T05:52:26.390Z,118.13
2018-07-31T05:53:26.389Z,118.13
2018-07-31T05:54:26.389Z,118.13
2018-07-31T05:55:26.391Z,118.13
2018-07-31T05:56:26.395Z,118.13
2018-07-31T05:57:26.403Z,118.13
2018-07-31T05:58:26.398Z,118.13
2018-07-31T05:59:26.393Z,118.13
2018-07-31T06:00:26.394Z,118.13
2018-07-31T06:01:26.394Z,118.13
2018-07-31T06:02:26.401Z,118.13
2018-07-31T06:03:26.429Z,118.13
2018-07-31T06:04:26.395Z,118.13
2018-07-31T06:05:26.398Z,118.13
2018-07-31T06:06:26.395Z,118.13
2018-07-31T06:07:26.404Z,118.13
2018-07-31T06:08:26.398Z,118.13
2018-07-31T06:09:26.424Z,118.13
2018-07-31T06:10:26.398Z,118.13
2018-07-31T06:11:26.453Z,118.13
2018-07-31T06:12:26.402Z,123.75
2018-07-31T06:13:26.401Z,123.75
2018-07-31T06:14:26.407Z,123.75
2018-07-31T06:15:26.405Z,123.75
2018-07-31T06:16:26.407Z,123.75
2018-07-31T06:17:26.404Z,123.75
2018-07-31T06:18:26.408Z,123.75
2018-07-31T06:19:26.405Z,123.75
2018-07-31T06:20:26.407Z,123.75
2018-07-31T06:21:26.406Z,123.75
2018-07-31T06:22:26.409Z,123.75
2018-07-31T06:23:26.414Z,123.75
2018-07-31T06:24:26.411Z,123.75
2018-07-31T06:25:26.412Z,123.75
2018-07-31T06:26:26.418Z,123.75
2018-07-31T06:27:26.413Z,123.75
2018-07-31T06:28:26.418Z,123.75
2018-07-31T06:29:26.417Z,123.75
2018-07-31T06:30:26.418Z,123.75
2018-07-31T06:31:26.419Z,123.75
2018-07-31T06:32:26.420Z,123.75
2018-07-31T06:33:26.422Z,123.75
2018-07-31T06:34:26.428Z,123.75
2018-07-31T06:35:26.423Z,123.75
2018-07-31T06:36:26.425Z,123.75
2018-07-31T06:37:26.425Z,123.75
2018-07-31T06:38:26.431Z,123.75
2018-07-31T06:39:26.429Z,118.13
2018-07-31T06:40:26.465Z,118.13
2018-07-31T06:41:26.432Z,118.13
2018-07-31T06:42:26.433Z,118.13
2018-07-31T06:43:26.484Z,118.13
2018-07-31T06:44:26.437Z,118.13
2018-07-31T06:45:26.435Z,118.13
2018-07-31T06:46:26.437Z,118.13
2018-07-31T06:47:26.443Z,118.13
2018-07-31T06:48:26.439Z,118.13
2018-07-31T06:49:26.442Z,118.13
2018-07-31T06:50:26.442Z,118.13
2018-07-31T06:51:26.448Z,118.13
2018-07-31T06:52:26.451Z,118.13
2018-07-31T06:53:26.450Z,118.13
2018-07-31T06:54:26.447Z,118.13
2018-07-31T06:55:26.450Z,118.13
2018-07-31T06:56:26.449Z,123.75
2018-07-31T06:57:26.451Z,118.13
2018-07-31T06:58:26.460Z,118.13
2018-07-31T06:59:26.457Z,118.13
2018-07-31T07:00:26.456Z,118.13
2018-07-31T07:01:26.458Z,118.13
2018-07-31T07:02:26.462Z,118.13
2018-07-31T07:03:26.460Z,118.13
2018-07-31T07:04:26.462Z,118.13
2018-07-31T07:05:26.466Z,118.13
2018-07-31T07:06:26.466Z,118.13
2018-07-31T07:07:26.467Z,118.13
2018-07-31T07:08:26.474Z,118.13
2018-07-31T07:09:26.472Z,118.13
2018-07-31T07:10:26.474Z,118.13
2018-07-31T07:11:26.476Z,118.13
2018-07-31T07:12:26.480Z,112.50
2018-07-31T07:13:26.480Z,118.13
2018-07-31T07:14:26.484Z,112.50
2018-07-31T07:15:26.518Z,112.50
2018-07-31T07:16:26.485Z,112.50
2018-07-31T07:17:26.490Z,112.50
2018-07-31T07:18:26.490Z,112.50
2018-07-31T07:19:26.491Z,112.50
2018-07-31T07:20:26.499Z,112.50
2018-07-31T07:21:26.495Z,112.50
2018-07-31T07:22:26.501Z,112.50
2018-07-31T07:23:26.509Z,112.50
2018-07-31T07:24:26.511Z,112.50
2018-07-31T07:25:26.505Z,112.50
2018-07-31T07:26:26.510Z,112.50
2018-07-31T07:27:26.510Z,112.50
2018-07-31T07:28:26.511Z,112.50
2018-07-31T07:29:26.513Z,112.50
2018-07-31T07:30:26.517Z,112.50
2018-07-31T07:31:26.520Z,112.50
2018-07-31T07:32:26.522Z,112.50
2018-07-31T07:33:26.526Z,112.50
2018-07-31T07:34:26.548Z,112.50
2018-07-31T07:35:26.538Z,112.50
2018-07-31T07:36:26.532Z,112.50
2018-07-31T07:37:26.548Z,112.50
2018-07-31T07:38:26.543Z,112.50
2018-07-31T07:39:26.544Z,112.50
2018-07-31T07:40:26.543Z,112.50
2018-07-31T07:41:26.550Z,112.50
2018-07-31T07:42:26.551Z,112.50
2018-07-31T07:43:26.552Z,112.50
2018-07-31T07:44:26.555Z,112.50
2018-07-31T07:45:26.557Z,112.50
2018-07-31T07:46:26.562Z,112.50
2018-07-31T07:47:26.564Z,112.50
2018-07-31T07:48:26.608Z,112.50
2018-07-31T07:49:26.576Z,112.50
2018-07-31T07:50:26.572Z,112.50
2018-07-31T07:51:26.575Z,112.50
2018-07-31T07:52:26.576Z,112.50
2018-07-31T07:53:26.587Z,112.50
2018-07-31T07:54:26.587Z,112.50
2018-07-31T07:55:26.593Z,112.50
2018-07-31T07:56:26.595Z,112.50
2018-07-31T07:57:26.594Z,112.50
2018-07-31T07:58:26.598Z,112.50
2018-07-31T07:59:26.600Z,118.13
2018-07-31T08:00:26.616Z,112.50
2018-07-31T08:01:26.606Z,112.50
2018-07-31T08:02:26.609Z,112.50
2018-07-31T08:03:26.613Z,112.50
2018-07-31T08:04:26.616Z,112.50
2018-07-31T08:05:26.621Z,112.50
2018-07-31T08:06:26.623Z,112.50
2018-07-31T08:07:26.633Z,112.50
2018-07-31T08:08:26.630Z,112.50
2018-07-31T08:09:26.634Z,112.50
2018-07-31T08:10:26.645Z,112.50
2018-07-31T08:11:26.641Z,112.50
2018-07-31T08:12:26.644Z,112.50
2018-07-31T08:13:26.649Z,112.50
2018-07-31T08:14:26.664Z,112.50
2018-07-31T08:15:26.660Z,112.50
2018-07-31T08:16:26.665Z,112.50
2018-07-31T08:17:26.666Z,112.50
2018-07-31T08:18:26.666Z,112.50
2018-07-31T08:19:26.669Z,112.50
2018-07-31T08:20:26.708Z,112.50
2018-07-31T08:21:26.678Z,112.50
2018-07-31T08:22:26.682Z,112.50
2018-07-31T08:23:26.753Z,112.50
2018-07-31T08:24:26.691Z,112.50
2018-07-31T08:25:26.693Z,112.50
2018-07-31T08:26:26.698Z,112.50
2018-07-31T08:27:26.702Z,112.50
2018-07-31T08:28:26.704Z,112.50
2018-07-31T08:29:26.707Z,112.50
2018-07-31T08:30:26.711Z,112.50
2018-07-31T08:31:26.716Z,112.50
2018-07-31T08:32:26.719Z,112.50
2018-07-31T08:33:26.729Z,112.50
2018-07-31T08:34:26.780Z,112.50
2018-07-31T08:35:26.738Z,112.50
2018-07-31T08:36:26.734Z,112.50
2018-07-31T08:37:26.744Z,112.50
2018-07-31T08:38:26.748Z,112.50
2018-07-31T08:39:26.748Z,112.50
2018-07-31T08:40:26.756Z,112.50
2018-07-31T08:41:26.798Z,112.50
2018-07-31T08:42:26.762Z,112.50
2018-07-31T08:43:26.785Z,112.50
2018-07-31T08:44:26.768Z,112.50
2018-07-31T08:45:26.772Z,112.50
2018-07-31T08:46:26.781Z,112.50
2018-07-31T08:47:26.787Z,112.50
2018-07-31T08:48:26.785Z,112.50
2018-07-31T08:49:26.789Z,112.50
2018-07-31T08:50:26.796Z,112.50
2018-07-31T08:51:26.805Z,112.50
2018-07-31T08:52:26.805Z,112.50
2018-07-31T08:53:26.810Z,106.88
2018-07-31T08:54:26.817Z,106.88
2018-07-31T08:55:26.817Z,106.88
2018-07-31T08:56:26.820Z,106.88
2018-07-31T08:57:26.830Z,106.88
2018-07-31T08:58:26.836Z,112.50
2018-07-31T08:59:26.837Z,106.88
2018-07-31T09:00:26.848Z,106.88
2018-07-31T09:01:26.844Z,106.88
2018-07-31T09:02:26.849Z,106.88
2018-07-31T09:03:26.854Z,106.88
2018-07-31T09:04:26.858Z,106.88
2018-07-31T09:05:26.863Z,106.88
2018-07-31T09:06:26.875Z,106.88
2018-07-31T09:07:26.872Z,106.88
2018-07-31T09:08:26.986Z,106.88
2018-07-31T09:09:26.888Z,106.88
2018-07-31T09:10:26.889Z,106.88
2018-07-31T09:11:26.894Z,106.88
2018-07-31T09:12:26.899Z,106.88
2018-07-31T09:13:26.903Z,106.88
2018-07-31T09:14:26.908Z,106.88
2018-07-31T09:15:26.917Z,106.88
2018-07-31T09:16:26.918Z,106.88
2018-07-31T09:17:26.950Z,106.88
2018-07-31T09:18:26.928Z,106.88
2018-07-31T09:19:26.934Z,106.88
2018-07-31T09:20:26.944Z,106.88
2018-07-31T09:21:26.945Z,106.88
2018-07-31T09:22:26.949Z,106.88
2018-07-31T09:23:26.956Z,106.88
2018-07-31T09:24:27.021Z,106.88
2018-07-31T09:25:26.969Z,106.88
2018-07-31T09:26:26.971Z,106.88
2018-07-31T09:27:26.978Z,106.88
2018-07-31T09:28:26.983Z,106.88
2018-07-31T09:29:26.991Z,106.88
2018-07-31T09:30:27.023Z,106.88
2018-07-31T09:31:27.001Z,106.88
2018-07-31T09:32:27.003Z,106.88
2018-07-31T09:33:27.009Z,106.88
2018-07-31T09:34:27.020Z,106.88
2018-07-31T09:35:27.027Z,106.88
2018-07-31T09:36:27.034Z,106.88
2018-07-31T09:37:27.029Z,106.88
2018-07-31T09:38:27.037Z,106.88
2018-07-31T09:39:27.047Z,106.88
2018-07-31T09:40:27.046Z,106.88
2018-07-31T09:41:27.058Z,106.88
2018-07-31T09:42:27.065Z,106.88
2018-07-31T09:43:27.069Z,106.88
2018-07-31T09:44:27.074Z,106.88
2018-07-31T09:45:27.075Z,106.88
2018-07-31T09:46:27.087Z,106.88
2018-07-31T09:47:27.087Z,106.88
2018-07-31T09:48:27.111Z,106.88
2018-07-31T09:49:27.099Z,106.88
2018-07-31T09:50:27.104Z,106.88
2018-07-31T09:51:27.110Z,106.88
2018-07-31T09:52:27.115Z,106.88
2018-07-31T09:53:27.126Z,106.88
2018-07-31T09:54:27.131Z,106.88
2018-07-31T09:55:27.138Z,106.88
2018-07-31T09:56:27.137Z,106.88
2018-07-31T09:57:27.143Z,106.88
2018-07-31T09:58:27.150Z,106.88
2018-07-31T09:59:27.155Z,106.88
2018-07-31T10:00:27.159Z,106.88
2018-07-31T10:01:27.172Z,106.88
2018-07-31T10:02:27.177Z,106.88
2018-07-31T10:03:27.184Z,106.88
2018-07-31T10:04:27.185Z,106.88
2018-07-31T10:05:27.195Z,106.88
2018-07-31T10:06:27.194Z,106.88
2018-07-31T10:07:27.205Z,106.88
2018-07-31T10:08:27.210Z,106.88
2018-07-31T10:09:27.212Z,106.88
2018-07-31T10:10:27.221Z,106.88
2018-07-31T10:11:27.229Z,106.88
2018-07-31T10:12:27.261Z,106.88
2018-07-31T10:13:27.233Z,106.88
2018-07-31T10:14:27.246Z,106.88
2018-07-31T10:15:27.247Z,106.88
2018-07-31T10:16:27.254Z,106.88
2018-07-31T10:17:27.256Z,106.88
2018-07-31T10:18:27.268Z,106.88
2018-07-31T10:19:27.269Z,106.88
2018-07-31T10:20:27.274Z,106.88
2018-07-31T10:21:27.284Z,106.88
2018-07-31T10:22:27.286Z,106.88
2018-07-31T10:23:27.292Z,106.88
2018-07-31T10:24:27.304Z,106.88
2018-07-31T10:25:27.308Z,106.88
2018-07-31T10:26:27.309Z,106.88
2018-07-31T10:27:27.322Z,106.88
2018-07-31T10:28:27.321Z,106.88
2018-07-31T10:29:27.332Z,106.88
2018-07-31T10:30:27.337Z,106.88
2018-07-31T10:31:27.347Z,106.88
2018-07-31T10:32:27.354Z,106.88
2018-07-31T10:33:27.354Z,106.88
2018-07-31T10:34:27.364Z,106.88
2018-07-31T10:35:27.372Z,106.88
2018-07-31T10:36:27.376Z,106.88
2018-07-31T10:37:27.425Z,106.88
2018-07-31T10:38:27.385Z,106.88
2018-07-31T10:39:27.392Z,106.88
2018-07-31T10:40:27.395Z,106.88
2018-07-31T10:41:27.408Z,106.88
2018-07-31T10:42:27.409Z,106.88
2018-07-31T10:43:27.417Z,106.88
2018-07-31T10:44:27.424Z,106.88
2018-07-31T10:45:27.431Z,106.88
2018-07-31T10:46:27.439Z,106.88
2018-07-31T10:47:27.449Z,106.88
2018-07-31T10:48:27.447Z,106.88
2018-07-31T10:49:27.454Z,106.88
2018-07-31T10:50:27.461Z,106.88
2018-07-31T10:51:27.469Z,106.88
2018-07-31T10:52:27.474Z,106.88
2018-07-31T10:53:27.484Z,106.88
2018-07-31T10:54:27.490Z,106.88
2018-07-31T10:55:27.498Z,106.88
2018-07-31T10:56:27.503Z,106.88
2018-07-31T10:57:27.510Z,106.88
2018-07-31T10:58:27.655Z,106.88
2018-07-31T10:59:27.523Z,106.88
2018-07-31T11:00:27.646Z,106.88
2018-07-31T11:01:27.533Z,106.88
2018-07-31T11:02:27.542Z,106.88
2018-07-31T11:03:27.545Z,106.88
2018-07-31T11:04:27.552Z,106.88
2018-07-31T11:05:27.565Z,106.88
2018-07-31T11:06:27.627Z,106.88
2018-07-31T11:07:27.573Z,106.88
2018-07-31T11:08:27.578Z,106.88
2018-07-31T11:09:27.588Z,106.88
2018-07-31T11:10:27.653Z,106.88
2018-07-31T11:11:27.597Z,106.88
2018-07-31T11:12:27.603Z,106.88
2018-07-31T11:13:27.617Z,106.88
2018-07-31T11:14:27.617Z,106.88
2018-07-31T11:15:27.626Z,106.88
2018-07-31T11:16:27.632Z,106.88
2018-07-31T11:17:27.644Z,106.88
2018-07-31T11:18:27.646Z,106.88
2018-07-31T11:19:27.657Z,106.88
2018-07-31T11:20:27.658Z,106.88
2018-07-31T11:21:27.670Z,106.88
2018-07-31T11:22:27.673Z,106.88
2018-07-31T11:23:27.680Z,106.88
2018-07-31T11:24:27.687Z,106.88
2018-07-31T11:25:27.696Z,106.88
2018-07-31T11:26:27.704Z,106.88
2018-07-31T11:27:27.745Z,106.88
2018-07-31T11:28:27.718Z,106.88
2018-07-31T11:29:27.724Z,106.88
2018-07-31T11:30:27.732Z,106.88
2018-07-31T11:31:27.738Z,106.88
2018-07-31T11:32:27.747Z,106.88
2018-07-31T11:33:27.752Z,106.88
2018-07-31T11:34:27.764Z,106.88
2018-07-31T11:35:27.770Z,106.88
2018-07-31T11:36:27.776Z,106.88
2018-07-31T11:37:27.784Z,112.50
2018-07-31T11:38:27.801Z,112.50
2018-07-31T11:39:27.798Z,112.50
2018-07-31T11:40:27.808Z,112.50
2018-07-31T11:41:27.820Z,112.50
2018-07-31T11:42:27.821Z,112.50
2018-07-31T11:43:27.830Z,112.50
2018-07-31T11:44:27.837Z,112.50
2018-07-31T11:45:27.847Z,112.50
2018-07-31T11:46:27.858Z,112.50
2018-07-31T11:47:27.860Z,112.50
2018-07-31T11:48:27.873Z,112.50
2018-07-31T11:49:27.880Z,112.50
2018-07-31T11:50:27.887Z,112.50
2018-07-31T11:51:27.892Z,112.50
2018-07-31T11:52:27.898Z,112.50
2018-07-31T11:53:27.906Z,118.13
2018-07-31T11:54:27.916Z,118.13
2018-07-31T11:55:27.928Z,118.13
2018-07-31T11:56:27.930Z,118.13
2018-07-31T11:57:27.938Z,118.13
2018-07-31T11:58:27.946Z,118.13
2018-07-31T11:59:27.954Z,118.13
2018-07-31T12:00:27.964Z,118.13
2018-07-31T12:01:27.970Z,118.13
2018-07-31T12:02:27.978Z,118.13
2018-07-31T12:03:27.987Z,118.13
2018-07-31T12:04:27.998Z,118.13
2018-07-31T12:05:28.001Z,118.13
2018-07-31T12:06:28.011Z,118.13
2018-07-31T12:07:28.020Z,112.50
2018-07-31T12:08:28.025Z,112.50
2018-07-31T12:09:28.034Z,95.63
2018-07-31T12:10:28.046Z,112.50
2018-07-31T12:11:28.070Z,118.13
2018-07-31T12:12:28.060Z,118.13
2018-07-31T12:13:28.066Z,106.88
2018-07-31T12:14:28.081Z,118.13
2018-07-31T12:15:28.088Z,118.13
2018-07-31T12:16:28.090Z,106.88
2018-07-31T12:17:28.104Z,112.50
2018-07-31T12:18:28.112Z,118.13
2018-07-31T12:19:28.116Z,112.50
2018-07-31T12:20:28.127Z,112.50
2018-07-31T12:21:28.137Z,112.50
2018-07-31T12:22:28.140Z,112.50
2018-07-31T12:23:28.151Z,112.50
2018-07-31T12:24:28.156Z,112.50
2018-07-31T12:25:28.165Z,112.50
2018-07-31T12:26:28.174Z,112.50
2018-07-31T12:27:28.180Z,112.50
2018-07-31T12:28:28.188Z,112.50
2018-07-31T12:29:28.198Z,112.50
2018-07-31T12:30:28.204Z,112.50
2018-07-31T12:31:28.223Z,112.50
2018-07-31T12:32:28.224Z,118.13
2018-07-31T12:33:28.231Z,118.13
2018-07-31T12:34:28.244Z,118.13
2018-07-31T12:35:28.250Z,118.13
2018-07-31T12:36:28.254Z,118.13
2018-07-31T12:37:28.262Z,112.50
2018-07-31T12:38:28.296Z,112.50
2018-07-31T12:39:28.281Z,112.50
2018-07-31T12:40:28.287Z,112.50
2018-07-31T12:41:28.296Z,112.50
2018-07-31T12:42:28.305Z,112.50
2018-07-31T12:43:28.311Z,112.50
2018-07-31T12:44:28.319Z,112.50
2018-07-31T12:45:28.331Z,112.50